T7PYR LEGE-EGCC
Flight info
| Callsign | T7PYR |
|---|---|
| Flight time | 1h 43m |
| Altitude | 47000 |
| Route | GEANT1B GEANT DCT ROCAN DCT TOU DCT TUPAR UN861 ANG DCT AKIKI UN867 AVANT UM184 HEMEL T420 ELVOS ELVOS1M |
| Aircraft | GL7T/M-SDFGIRWYB1/S |
Departure
| Time | 2026-05-08 20:09 |
|---|---|
| Airport | Girona-Costa Brava Airport (LEGE) |
Arrival
| Time | 2026-05-08 21:53 |
|---|---|
| Airport | Manchester Airport (EGCC) |
| Time | Latitude | Longitude | Altitude | Speed | Heading |
|---|---|---|---|---|---|
| 2026-05-08 19:58 | 41.90209 | 2.76504 | 433 ft | 0 kts | 196° |
| 2026-05-08 20:04 | 41.90192 | 2.76497 | 425 ft | 7 kts | 207° |
| 2026-05-08 20:04 | 41.90168 | 2.76436 | 428 ft | 9 kts | 284° |
| 2026-05-08 20:05 | 41.90186 | 2.76359 | 428 ft | 9 kts | 301° |
| 2026-05-08 20:05 | 41.90237 | 2.76341 | 433 ft | 10 kts | 13° |
| 2026-05-08 20:05 | 41.90296 | 2.76362 | 427 ft | 8 kts | 15° |
| 2026-05-08 20:05 | 41.90353 | 2.76383 | 429 ft | 12 kts | 15° |
| 2026-05-08 20:06 | 41.90435 | 2.76414 | 437 ft | 15 kts | 15° |
| 2026-05-08 20:06 | 41.90524 | 2.76448 | 448 ft | 12 kts | 15° |
| 2026-05-08 20:06 | 41.90594 | 2.76474 | 452 ft | 11 kts | 17° |
| 2026-05-08 20:06 | 41.90664 | 2.76502 | 455 ft | 9 kts | 17° |
| 2026-05-08 20:07 | 41.90718 | 2.76523 | 458 ft | 7 kts | 15° |
| 2026-05-08 20:07 | 41.90776 | 2.76545 | 461 ft | 10 kts | 15° |
| 2026-05-08 20:07 | 41.90849 | 2.76572 | 465 ft | 10 kts | 16° |
| 2026-05-08 20:07 | 41.90910 | 2.76596 | 466 ft | 8 kts | 15° |
| 2026-05-08 20:08 | 41.90954 | 2.76590 | 469 ft | 5 kts | 333° |
| 2026-05-08 20:08 | 41.90975 | 2.76540 | 471 ft | 9 kts | 276° |
| 2026-05-08 20:08 | 41.90953 | 2.76449 | 469 ft | 12 kts | 234° |
| 2026-05-08 20:08 | 41.90912 | 2.76369 | 466 ft | 9 kts | 213° |
| 2026-05-08 20:09 | 41.90732 | 2.76298 | 458 ft | 76 kts | 196° |
| 2026-05-08 20:09 | 41.89883 | 2.75988 | 633 ft | 147 kts | 195° |
| 2026-05-08 20:09 | 41.88720 | 2.75575 | 1348 ft | 186 kts | 195° |
| 2026-05-08 20:09 | 41.87428 | 2.75058 | 2104 ft | 196 kts | 196° |
| 2026-05-08 20:10 | 41.86115 | 2.74547 | 2825 ft | 196 kts | 195° |
| 2026-05-08 20:10 | 41.84759 | 2.74039 | 3536 ft | 209 kts | 195° |
| 2026-05-08 20:10 | 41.83345 | 2.73489 | 4246 ft | 212 kts | 197° |
| 2026-05-08 20:10 | 41.82121 | 2.72384 | 4787 ft | 222 kts | 227° |
| 2026-05-08 20:11 | 41.81624 | 2.70432 | 5300 ft | 229 kts | 265° |
| 2026-05-08 20:11 | 41.82156 | 2.68419 | 5827 ft | 235 kts | 303° |
| 2026-05-08 20:11 | 41.83486 | 2.67141 | 6393 ft | 240 kts | 336° |
| 2026-05-08 20:11 | 41.85124 | 2.67071 | 6890 ft | 244 kts | 12° |
| 2026-05-08 20:12 | 41.86524 | 2.68323 | 7405 ft | 246 kts | 48° |
| 2026-05-08 20:12 | 41.87710 | 2.70070 | 7962 ft | 279 kts | 38° |
| 2026-05-08 20:12 | 41.89534 | 2.71108 | 8613 ft | 288 kts | 15° |
| 2026-05-08 20:12 | 41.91480 | 2.71777 | 9273 ft | 296 kts | 5° |
| 2026-05-08 20:13 | 41.93489 | 2.71290 | 9875 ft | 295 kts | 335° |
| 2026-05-08 20:13 | 41.95126 | 2.69576 | 10286 ft | 321 kts | 311° |
| 2026-05-08 20:13 | 41.96653 | 2.67127 | 10882 ft | 355 kts | 308° |
| 2026-05-08 20:13 | 41.98330 | 2.64578 | 11445 ft | 365 kts | 311° |
| 2026-05-08 20:14 | 42.00225 | 2.62329 | 11879 ft | 370 kts | 321° |
| 2026-05-08 20:14 | 42.02437 | 2.60421 | 12928 ft | 381 kts | 327° |
| 2026-05-08 20:14 | 42.04665 | 2.58569 | 13835 ft | 374 kts | 326° |
| 2026-05-08 20:14 | 42.06858 | 2.56569 | 14334 ft | 380 kts | 323° |
| 2026-05-08 20:15 | 42.08973 | 2.54475 | 14682 ft | 381 kts | 321° |
| 2026-05-08 20:15 | 42.11104 | 2.52391 | 15020 ft | 382 kts | 322° |
| 2026-05-08 20:15 | 42.13301 | 2.50344 | 15363 ft | 383 kts | 323° |
| 2026-05-08 20:15 | 42.15505 | 2.48297 | 15711 ft | 384 kts | 322° |
| 2026-05-08 20:16 | 42.17667 | 2.46225 | 16051 ft | 385 kts | 321° |
| 2026-05-08 20:16 | 42.19849 | 2.44115 | 16408 ft | 386 kts | 321° |
| 2026-05-08 20:16 | 42.22029 | 2.42037 | 16767 ft | 387 kts | 322° |
| 2026-05-08 20:16 | 42.24241 | 2.39944 | 17122 ft | 389 kts | 321° |
| 2026-05-08 20:17 | 42.26453 | 2.37835 | 17490 ft | 390 kts | 321° |
| 2026-05-08 20:17 | 42.28667 | 2.35710 | 17862 ft | 391 kts | 321° |
| 2026-05-08 20:17 | 42.30889 | 2.33581 | 18239 ft | 391 kts | 321° |
| 2026-05-08 20:17 | 42.33118 | 2.31449 | 18579 ft | 393 kts | 321° |
| 2026-05-08 20:18 | 42.35366 | 2.29295 | 18910 ft | 395 kts | 321° |
| 2026-05-08 20:18 | 42.37590 | 2.27164 | 19249 ft | 396 kts | 320° |
| 2026-05-08 20:18 | 42.39858 | 2.24985 | 19572 ft | 398 kts | 320° |
| 2026-05-08 20:18 | 42.42104 | 2.22823 | 19913 ft | 401 kts | 320° |
| 2026-05-08 20:19 | 42.44345 | 2.20548 | 20254 ft | 400 kts | 316° |
| 2026-05-08 20:19 | 42.46474 | 2.18138 | 20609 ft | 403 kts | 315° |
| 2026-05-08 20:19 | 42.48629 | 2.15687 | 20955 ft | 402 kts | 315° |
| 2026-05-08 20:19 | 42.50799 | 2.13273 | 21308 ft | 405 kts | 316° |
| 2026-05-08 20:20 | 42.52966 | 2.10866 | 21670 ft | 407 kts | 315° |
| 2026-05-08 20:20 | 42.55162 | 2.08394 | 22035 ft | 409 kts | 315° |
| 2026-05-08 20:20 | 42.57360 | 2.05907 | 22405 ft | 410 kts | 315° |
| 2026-05-08 20:20 | 42.59536 | 2.03462 | 22778 ft | 412 kts | 315° |
| 2026-05-08 20:21 | 42.61784 | 2.00969 | 23150 ft | 417 kts | 315° |
| 2026-05-08 20:21 | 42.63991 | 1.98475 | 23527 ft | 416 kts | 314° |
| 2026-05-08 20:21 | 42.66251 | 1.95941 | 23845 ft | 422 kts | 316° |
| 2026-05-08 20:21 | 42.68756 | 1.93812 | 24148 ft | 433 kts | 326° |
| 2026-05-08 20:22 | 42.71506 | 1.92066 | 24468 ft | 435 kts | 330° |
| 2026-05-08 20:22 | 42.74286 | 1.90373 | 24801 ft | 437 kts | 330° |
| 2026-05-08 20:22 | 42.77027 | 1.88650 | 25134 ft | 440 kts | 329° |
| 2026-05-08 20:22 | 42.79818 | 1.86882 | 25472 ft | 442 kts | 329° |
| 2026-05-08 20:23 | 42.82640 | 1.85128 | 25823 ft | 444 kts | 330° |
| 2026-05-08 20:23 | 42.85438 | 1.83402 | 26163 ft | 447 kts | 330° |
| 2026-05-08 20:23 | 42.88286 | 1.81626 | 26517 ft | 449 kts | 329° |
| 2026-05-08 20:23 | 42.91131 | 1.79830 | 26869 ft | 451 kts | 329° |
| 2026-05-08 20:24 | 42.93962 | 1.78048 | 27227 ft | 454 kts | 329° |
| 2026-05-08 20:24 | 42.96860 | 1.76240 | 27599 ft | 457 kts | 330° |
| 2026-05-08 20:24 | 42.99777 | 1.74419 | 27969 ft | 459 kts | 330° |
| 2026-05-08 20:24 | 43.02660 | 1.72605 | 28344 ft | 462 kts | 329° |
| 2026-05-08 20:25 | 43.05608 | 1.70742 | 28725 ft | 465 kts | 329° |
| 2026-05-08 20:25 | 43.08533 | 1.68899 | 29110 ft | 468 kts | 330° |
| 2026-05-08 20:25 | 43.11501 | 1.67034 | 29504 ft | 471 kts | 330° |
| 2026-05-08 20:25 | 43.14487 | 1.65154 | 29901 ft | 473 kts | 330° |
| 2026-05-08 20:26 | 43.17492 | 1.63252 | 30260 ft | 476 kts | 330° |
| 2026-05-08 20:26 | 43.20496 | 1.61348 | 30601 ft | 480 kts | 330° |
| 2026-05-08 20:26 | 43.23558 | 1.59413 | 30953 ft | 483 kts | 330° |
| 2026-05-08 20:26 | 43.26582 | 1.57499 | 31298 ft | 486 kts | 330° |
| 2026-05-08 20:27 | 43.29663 | 1.55543 | 31661 ft | 489 kts | 330° |
| 2026-05-08 20:27 | 43.32767 | 1.53569 | 32018 ft | 493 kts | 330° |
| 2026-05-08 20:27 | 43.35898 | 1.51580 | 32381 ft | 493 kts | 330° |
| 2026-05-08 20:27 | 43.39015 | 1.49598 | 32746 ft | 493 kts | 330° |
| 2026-05-08 20:28 | 43.42087 | 1.47640 | 33110 ft | 494 kts | 330° |
| 2026-05-08 20:28 | 43.45213 | 1.45643 | 33487 ft | 495 kts | 330° |
| 2026-05-08 20:28 | 43.48341 | 1.43645 | 33868 ft | 496 kts | 330° |
| 2026-05-08 20:28 | 43.51481 | 1.41638 | 34208 ft | 496 kts | 330° |
| 2026-05-08 20:29 | 43.54611 | 1.39634 | 34536 ft | 496 kts | 330° |
| 2026-05-08 20:29 | 43.57758 | 1.37618 | 34869 ft | 496 kts | 330° |
| 2026-05-08 20:29 | 43.60864 | 1.35624 | 35189 ft | 496 kts | 330° |
| 2026-05-08 20:29 | 43.63991 | 1.33615 | 35544 ft | 496 kts | 330° |
| 2026-05-08 20:30 | 43.67129 | 1.31597 | 35894 ft | 496 kts | 330° |
| 2026-05-08 20:30 | 43.70226 | 1.29528 | 36235 ft | 494 kts | 328° |
| 2026-05-08 20:30 | 43.73308 | 1.27413 | 36595 ft | 495 kts | 328° |
| 2026-05-08 20:30 | 43.76360 | 1.25333 | 36948 ft | 495 kts | 329° |
| 2026-05-08 20:31 | 43.79466 | 1.23228 | 37323 ft | 494 kts | 329° |
| 2026-05-08 20:31 | 43.82565 | 1.21115 | 37695 ft | 494 kts | 329° |
| 2026-05-08 20:31 | 43.85613 | 1.19019 | 38070 ft | 494 kts | 328° |
| 2026-05-08 20:31 | 43.88701 | 1.16898 | 38458 ft | 494 kts | 329° |
| 2026-05-08 20:32 | 43.91790 | 1.14786 | 38799 ft | 494 kts | 329° |
| 2026-05-08 20:32 | 43.94884 | 1.12665 | 39106 ft | 495 kts | 329° |
| 2026-05-08 20:32 | 43.97965 | 1.10543 | 39415 ft | 495 kts | 329° |
| 2026-05-08 20:32 | 44.01060 | 1.08410 | 39734 ft | 497 kts | 329° |
| 2026-05-08 20:33 | 44.04129 | 1.06297 | 40050 ft | 497 kts | 329° |
| 2026-05-08 20:33 | 44.07235 | 1.04157 | 40382 ft | 498 kts | 329° |
| 2026-05-08 20:33 | 44.10349 | 1.02005 | 40700 ft | 500 kts | 329° |
| 2026-05-08 20:33 | 44.13479 | 0.99838 | 41043 ft | 503 kts | 329° |
| 2026-05-08 20:34 | 44.16644 | 0.97647 | 41385 ft | 506 kts | 329° |
| 2026-05-08 20:34 | 44.19791 | 0.95468 | 41738 ft | 508 kts | 329° |
| 2026-05-08 20:34 | 44.26113 | 0.91077 | 42451 ft | 511 kts | 330° |
| 2026-05-08 20:35 | 44.29286 | 0.88870 | 42816 ft | 510 kts | 330° |
| 2026-05-08 20:35 | 44.32494 | 0.86635 | 42968 ft | 518 kts | 330° |
| 2026-05-08 20:35 | 44.35723 | 0.84382 | 42978 ft | 517 kts | 330° |
| 2026-05-08 20:36 | 44.42129 | 0.79912 | 42979 ft | 515 kts | 330° |
| 2026-05-08 20:36 | 44.48537 | 0.75417 | 42985 ft | 516 kts | 330° |
| 2026-05-08 20:37 | 44.54983 | 0.70897 | 42982 ft | 516 kts | 330° |
| 2026-05-08 20:37 | 44.61373 | 0.66394 | 42979 ft | 516 kts | 330° |
| 2026-05-08 20:38 | 44.67774 | 0.61881 | 43000 ft | 516 kts | 330° |
| 2026-05-08 20:38 | 44.74184 | 0.57344 | 43000 ft | 516 kts | 330° |
| 2026-05-08 20:39 | 44.80599 | 0.52797 | 43003 ft | 516 kts | 330° |
| 2026-05-08 20:39 | 44.86990 | 0.48252 | 43005 ft | 516 kts | 330° |
| 2026-05-08 20:40 | 44.93410 | 0.43678 | 43000 ft | 516 kts | 330° |
| 2026-05-08 20:40 | 44.99809 | 0.39104 | 42996 ft | 516 kts | 330° |
| 2026-05-08 20:41 | 45.06200 | 0.34526 | 42986 ft | 516 kts | 330° |
| 2026-05-08 20:41 | 45.12595 | 0.29934 | 42978 ft | 516 kts | 330° |
| 2026-05-08 20:42 | 45.18990 | 0.25331 | 42975 ft | 516 kts | 330° |
| 2026-05-08 20:42 | 45.25393 | 0.20707 | 42973 ft | 516 kts | 330° |
| 2026-05-08 20:43 | 45.31800 | 0.16074 | 42981 ft | 517 kts | 330° |
| 2026-05-08 20:43 | 45.38199 | 0.11429 | 42977 ft | 517 kts | 330° |
| 2026-05-08 20:44 | 45.44616 | 0.06763 | 42979 ft | 517 kts | 330° |
| 2026-05-08 20:44 | 45.50998 | 0.02108 | 42987 ft | 518 kts | 330° |
| 2026-05-08 20:45 | 45.57411 | -0.02579 | 42973 ft | 518 kts | 330° |
| 2026-05-08 20:45 | 45.63826 | -0.07282 | 42972 ft | 518 kts | 330° |
| 2026-05-08 20:46 | 45.70249 | -0.12002 | 42976 ft | 518 kts | 330° |
| 2026-05-08 20:46 | 45.76641 | -0.16711 | 42974 ft | 518 kts | 330° |
| 2026-05-08 20:47 | 45.83061 | -0.21454 | 42971 ft | 518 kts | 330° |
| 2026-05-08 20:47 | 45.89444 | -0.26181 | 42974 ft | 518 kts | 330° |
| 2026-05-08 20:48 | 45.95858 | -0.30945 | 42976 ft | 519 kts | 330° |
| 2026-05-08 20:48 | 46.02264 | -0.35713 | 42973 ft | 519 kts | 330° |
| 2026-05-08 20:49 | 46.08653 | -0.40483 | 42977 ft | 519 kts | 330° |
| 2026-05-08 20:49 | 46.15091 | -0.45301 | 42985 ft | 520 kts | 330° |
| 2026-05-08 20:50 | 46.21493 | -0.50105 | 42974 ft | 520 kts | 330° |
| 2026-05-08 20:50 | 46.27878 | -0.54910 | 42988 ft | 520 kts | 330° |
| 2026-05-08 20:51 | 46.34301 | -0.59755 | 42983 ft | 520 kts | 330° |
| 2026-05-08 20:51 | 46.40765 | -0.64521 | 42967 ft | 521 kts | 334° |
| 2026-05-08 20:52 | 46.47753 | -0.67247 | 42972 ft | 526 kts | 351° |
| 2026-05-08 20:52 | 46.55047 | -0.68209 | 42975 ft | 526 kts | 353° |
| 2026-05-08 20:53 | 46.61079 | -0.69347 | 42986 ft | 525 kts | 351° |
| 2026-05-08 20:53 | 46.68336 | -0.70545 | 42988 ft | 525 kts | 353° |
| 2026-05-08 20:54 | 46.75597 | -0.71765 | 42987 ft | 524 kts | 351° |
| 2026-05-08 20:54 | 46.82827 | -0.73011 | 42996 ft | 524 kts | 353° |
| 2026-05-08 20:55 | 46.90042 | -0.74210 | 43000 ft | 523 kts | 352° |
| 2026-05-08 20:55 | 46.97268 | -0.75468 | 42999 ft | 523 kts | 352° |
| 2026-05-08 20:56 | 47.04522 | -0.76684 | 42995 ft | 523 kts | 352° |
| 2026-05-08 20:56 | 47.11766 | -0.77943 | 43001 ft | 523 kts | 352° |
| 2026-05-08 20:57 | 47.18959 | -0.79164 | 43005 ft | 523 kts | 352° |
| 2026-05-08 20:57 | 47.26216 | -0.80426 | 43009 ft | 523 kts | 352° |
| 2026-05-08 20:58 | 47.33416 | -0.81659 | 43010 ft | 522 kts | 352° |
| 2026-05-08 20:58 | 47.40630 | -0.82916 | 43019 ft | 522 kts | 352° |
| 2026-05-08 20:59 | 47.47819 | -0.84159 | 43021 ft | 522 kts | 352° |
| 2026-05-08 20:59 | 47.55011 | -0.85500 | 43016 ft | 521 kts | 349° |
| 2026-05-08 21:00 | 47.62155 | -0.87442 | 43022 ft | 522 kts | 348° |
| 2026-05-08 21:00 | 47.69306 | -0.89305 | 43029 ft | 521 kts | 349° |
| 2026-05-08 21:01 | 47.76428 | -0.91214 | 43036 ft | 521 kts | 348° |
| 2026-05-08 21:01 | 47.83545 | -0.93106 | 43045 ft | 521 kts | 349° |
| 2026-05-08 21:02 | 47.90671 | -0.95011 | 43052 ft | 520 kts | 348° |
| 2026-05-08 21:02 | 47.97793 | -0.96922 | 43041 ft | 520 kts | 349° |
| 2026-05-08 21:03 | 48.04954 | -0.98845 | 43045 ft | 520 kts | 348° |
| 2026-05-08 21:03 | 48.12031 | -1.00755 | 43052 ft | 520 kts | 348° |
| 2026-05-08 21:04 | 48.19142 | -1.02675 | 43047 ft | 520 kts | 348° |
| 2026-05-08 21:04 | 48.26268 | -1.04608 | 43051 ft | 519 kts | 348° |
| 2026-05-08 21:05 | 48.33360 | -1.06536 | 43050 ft | 519 kts | 348° |
| 2026-05-08 21:05 | 48.40465 | -1.08474 | 43053 ft | 518 kts | 348° |
| 2026-05-08 21:06 | 48.47574 | -1.10416 | 43059 ft | 518 kts | 348° |
| 2026-05-08 21:06 | 48.54674 | -1.12364 | 43055 ft | 518 kts | 348° |
| 2026-05-08 21:07 | 48.61752 | -1.14309 | 43064 ft | 518 kts | 348° |
| 2026-05-08 21:07 | 48.68807 | -1.16256 | 43063 ft | 517 kts | 348° |
| 2026-05-08 21:08 | 48.75897 | -1.18215 | 43062 ft | 517 kts | 348° |
| 2026-05-08 21:08 | 48.82943 | -1.20170 | 43067 ft | 517 kts | 348° |
| 2026-05-08 21:09 | 48.90046 | -1.22146 | 43067 ft | 516 kts | 348° |
| 2026-05-08 21:09 | 48.97110 | -1.24115 | 43069 ft | 516 kts | 348° |
| 2026-05-08 21:10 | 49.04175 | -1.26093 | 43068 ft | 516 kts | 348° |
| 2026-05-08 21:10 | 49.11213 | -1.28067 | 43069 ft | 515 kts | 348° |
| 2026-05-08 21:11 | 49.18243 | -1.30045 | 43077 ft | 515 kts | 348° |
| 2026-05-08 21:11 | 49.25316 | -1.32041 | 43076 ft | 515 kts | 348° |
| 2026-05-08 21:12 | 49.32333 | -1.34026 | 43086 ft | 515 kts | 348° |
| 2026-05-08 21:12 | 49.39423 | -1.36039 | 43087 ft | 515 kts | 348° |
| 2026-05-08 21:13 | 49.46447 | -1.38038 | 43106 ft | 515 kts | 348° |
| 2026-05-08 21:13 | 49.53506 | -1.40053 | 43106 ft | 515 kts | 348° |
| 2026-05-08 21:14 | 49.60617 | -1.41550 | 43097 ft | 517 kts | 358° |
| 2026-05-08 21:14 | 49.67776 | -1.40889 | 43114 ft | 519 kts | 4° |
| 2026-05-08 21:15 | 49.75017 | -1.40263 | 43112 ft | 519 kts | 1° |
| 2026-05-08 21:15 | 49.82223 | -1.39643 | 43105 ft | 520 kts | 3° |
| 2026-05-08 21:16 | 49.89450 | -1.38967 | 43107 ft | 520 kts | 1° |
| 2026-05-08 21:16 | 49.96644 | -1.38363 | 43107 ft | 519 kts | 2° |
| 2026-05-08 21:17 | 50.03812 | -1.37166 | 43100 ft | 520 kts | 8° |
| 2026-05-08 21:17 | 50.10973 | -1.35275 | 43108 ft | 520 kts | 8° |
| 2026-05-08 21:18 | 50.17919 | -1.32190 | 43100 ft | 522 kts | 19° |
| 2026-05-08 21:18 | 50.24712 | -1.28315 | 43112 ft | 521 kts | 17° |
| 2026-05-08 21:19 | 50.31628 | -1.24801 | 43110 ft | 521 kts | 18° |
| 2026-05-08 21:19 | 50.38469 | -1.20971 | 43113 ft | 521 kts | 18° |
| 2026-05-08 21:20 | 50.45317 | -1.17383 | 43116 ft | 520 kts | 18° |
| 2026-05-08 21:20 | 50.52178 | -1.13594 | 43119 ft | 520 kts | 18° |
| 2026-05-08 21:21 | 50.59007 | -1.09937 | 43126 ft | 520 kts | 18° |
| 2026-05-08 21:21 | 50.65845 | -1.06178 | 43132 ft | 520 kts | 18° |
| 2026-05-08 21:22 | 50.72693 | -1.02459 | 43137 ft | 520 kts | 18° |
| 2026-05-08 21:22 | 50.79515 | -0.98705 | 43140 ft | 520 kts | 18° |
| 2026-05-08 21:23 | 50.86380 | -0.94941 | 43139 ft | 520 kts | 18° |
| 2026-05-08 21:23 | 50.93094 | -0.91232 | 43139 ft | 520 kts | 18° |
| 2026-05-08 21:24 | 50.99951 | -0.87443 | 43140 ft | 520 kts | 18° |
| 2026-05-08 21:24 | 51.06765 | -0.83659 | 43140 ft | 520 kts | 18° |
| 2026-05-08 21:25 | 51.13597 | -0.79856 | 43136 ft | 520 kts | 18° |
| 2026-05-08 21:25 | 51.20393 | -0.76062 | 43167 ft | 519 kts | 18° |
| 2026-05-08 21:26 | 51.27232 | -0.72231 | 43168 ft | 519 kts | 18° |
| 2026-05-08 21:26 | 51.34044 | -0.68403 | 43166 ft | 519 kts | 18° |
| 2026-05-08 21:27 | 51.40842 | -0.64572 | 43164 ft | 519 kts | 18° |
| 2026-05-08 21:27 | 51.47639 | -0.60727 | 43162 ft | 519 kts | 18° |
| 2026-05-08 21:28 | 51.54451 | -0.56864 | 43163 ft | 519 kts | 18° |
| 2026-05-08 21:28 | 51.61276 | -0.52980 | 43164 ft | 519 kts | 18° |
| 2026-05-08 21:29 | 51.68051 | -0.49112 | 43165 ft | 519 kts | 18° |
| 2026-05-08 21:29 | 51.74981 | -0.46146 | 43175 ft | 515 kts | 5° |
| 2026-05-08 21:30 | 51.82118 | -0.46455 | 43150 ft | 510 kts | 348° |
| 2026-05-08 21:30 | 51.88754 | -0.49991 | 43160 ft | 488 kts | 332° |
| 2026-05-08 21:30 | 51.91635 | -0.52648 | 43146 ft | 466 kts | 326° |
| 2026-05-08 21:31 | 51.94373 | -0.55406 | 43144 ft | 456 kts | 326° |
| 2026-05-08 21:31 | 51.99762 | -0.60620 | 43146 ft | 448 kts | 327° |
| 2026-05-08 21:32 | 52.05087 | -0.65861 | 43142 ft | 447 kts | 326° |
| 2026-05-08 21:32 | 52.10409 | -0.71084 | 43066 ft | 449 kts | 326° |
| 2026-05-08 21:32 | 52.13146 | -0.73763 | 42250 ft | 471 kts | 326° |
| 2026-05-08 21:33 | 52.15956 | -0.76546 | 41313 ft | 477 kts | 326° |
| 2026-05-08 21:33 | 52.18785 | -0.79352 | 40341 ft | 471 kts | 326° |
| 2026-05-08 21:33 | 52.21547 | -0.82080 | 39390 ft | 466 kts | 326° |
| 2026-05-08 21:33 | 52.24320 | -0.84818 | 38354 ft | 460 kts | 326° |
| 2026-05-08 21:34 | 52.27056 | -0.87534 | 37178 ft | 454 kts | 326° |
| 2026-05-08 21:34 | 52.29711 | -0.90180 | 36074 ft | 448 kts | 326° |
| 2026-05-08 21:34 | 52.32362 | -0.92814 | 35011 ft | 442 kts | 326° |
| 2026-05-08 21:34 | 52.34979 | -0.95417 | 34021 ft | 434 kts | 325° |
| 2026-05-08 21:35 | 52.37540 | -0.97972 | 32910 ft | 427 kts | 325° |
| 2026-05-08 21:35 | 52.40030 | -1.00463 | 31859 ft | 421 kts | 325° |
| 2026-05-08 21:35 | 52.42613 | -1.03059 | 30826 ft | 438 kts | 325° |
| 2026-05-08 21:35 | 52.45204 | -1.05650 | 29783 ft | 431 kts | 325° |
| 2026-05-08 21:36 | 52.47734 | -1.08176 | 28651 ft | 425 kts | 325° |
| 2026-05-08 21:36 | 52.50260 | -1.10715 | 27578 ft | 419 kts | 324° |
| 2026-05-08 21:36 | 52.51906 | -1.12376 | 26926 ft | 416 kts | 324° |
| 2026-05-08 21:36 | 52.55163 | -1.15659 | 25668 ft | 410 kts | 324° |
| 2026-05-08 21:37 | 52.56769 | -1.17276 | 25076 ft | 407 kts | 324° |
| 2026-05-08 21:37 | 52.59956 | -1.20490 | 23916 ft | 401 kts | 324° |
| 2026-05-08 21:37 | 52.61540 | -1.22090 | 23287 ft | 399 kts | 324° |
| 2026-05-08 21:37 | 52.63898 | -1.24478 | 22288 ft | 394 kts | 325° |
| 2026-05-08 21:38 | 52.66230 | -1.26838 | 21320 ft | 389 kts | 325° |
| 2026-05-08 21:38 | 52.68501 | -1.29141 | 20414 ft | 386 kts | 325° |
| 2026-05-08 21:38 | 52.70842 | -1.31525 | 20114 ft | 402 kts | 326° |
| 2026-05-08 21:38 | 52.73261 | -1.33986 | 20105 ft | 405 kts | 326° |
| 2026-05-08 21:39 | 52.75580 | -1.36337 | 19741 ft | 386 kts | 326° |
| 2026-05-08 21:39 | 52.77844 | -1.38647 | 19253 ft | 379 kts | 326° |
| 2026-05-08 21:39 | 52.80080 | -1.40950 | 18765 ft | 376 kts | 325° |
| 2026-05-08 21:39 | 52.82280 | -1.43200 | 18275 ft | 374 kts | 326° |
| 2026-05-08 21:40 | 52.84493 | -1.45449 | 17780 ft | 371 kts | 326° |
| 2026-05-08 21:40 | 52.86681 | -1.47688 | 17302 ft | 368 kts | 326° |
| 2026-05-08 21:40 | 52.88844 | -1.49918 | 16834 ft | 364 kts | 326° |
| 2026-05-08 21:41 | 52.93096 | -1.54288 | 15915 ft | 358 kts | 326° |
| 2026-05-08 21:41 | 52.95233 | -1.56488 | 15456 ft | 355 kts | 326° |
| 2026-05-08 21:41 | 52.97290 | -1.58611 | 15012 ft | 351 kts | 326° |
| 2026-05-08 21:41 | 52.99356 | -1.60745 | 14565 ft | 348 kts | 326° |
| 2026-05-08 21:42 | 53.01399 | -1.62858 | 14121 ft | 344 kts | 326° |
| 2026-05-08 21:42 | 53.03426 | -1.64953 | 13662 ft | 340 kts | 326° |
| 2026-05-08 21:42 | 53.05310 | -1.67102 | 13202 ft | 317 kts | 319° |
| 2026-05-08 21:42 | 53.06802 | -1.69662 | 12819 ft | 300 kts | 308° |
| 2026-05-08 21:43 | 53.08130 | -1.72311 | 12456 ft | 297 kts | 308° |
| 2026-05-08 21:43 | 53.09452 | -1.74881 | 12090 ft | 295 kts | 309° |
| 2026-05-08 21:43 | 53.10802 | -1.77452 | 11722 ft | 294 kts | 309° |
| 2026-05-08 21:43 | 53.12139 | -1.80030 | 11353 ft | 293 kts | 309° |
| 2026-05-08 21:44 | 53.13466 | -1.82628 | 10980 ft | 292 kts | 308° |
| 2026-05-08 21:44 | 53.14780 | -1.85196 | 10617 ft | 291 kts | 309° |
| 2026-05-08 21:44 | 53.16096 | -1.87747 | 10254 ft | 290 kts | 309° |
| 2026-05-08 21:44 | 53.17408 | -1.90298 | 9874 ft | 288 kts | 309° |
| 2026-05-08 21:45 | 53.18871 | -1.92501 | 9416 ft | 292 kts | 327° |
| 2026-05-08 21:45 | 53.20822 | -1.93451 | 9079 ft | 294 kts | 352° |
| 2026-05-08 21:45 | 53.22868 | -1.93555 | 8933 ft | 291 kts | 359° |
| 2026-05-08 21:45 | 53.24906 | -1.93522 | 8475 ft | 290 kts | 0° |
| 2026-05-08 21:46 | 53.26903 | -1.93492 | 7990 ft | 284 kts | 0° |
| 2026-05-08 21:46 | 53.28871 | -1.93472 | 7498 ft | 280 kts | 0° |
| 2026-05-08 21:46 | 53.30784 | -1.93457 | 7029 ft | 277 kts | 0° |
| 2026-05-08 21:46 | 53.32697 | -1.93449 | 6601 ft | 273 kts | 0° |
| 2026-05-08 21:47 | 53.34574 | -1.93531 | 6181 ft | 266 kts | 354° |
| 2026-05-08 21:47 | 53.36360 | -1.94282 | 5737 ft | 264 kts | 342° |
| 2026-05-08 21:47 | 53.38080 | -1.95299 | 5331 ft | 260 kts | 340° |
| 2026-05-08 21:47 | 53.39783 | -1.96330 | 4927 ft | 259 kts | 340° |
| 2026-05-08 21:48 | 53.41475 | -1.97352 | 4463 ft | 258 kts | 340° |
| 2026-05-08 21:48 | 53.43143 | -1.98361 | 4056 ft | 257 kts | 340° |
| 2026-05-08 21:48 | 53.44791 | -1.99438 | 3638 ft | 250 kts | 335° |
| 2026-05-08 21:48 | 53.46011 | -2.01397 | 3391 ft | 235 kts | 300° |
| 2026-05-08 21:49 | 53.46312 | -2.03949 | 3343 ft | 218 kts | 266° |
| 2026-05-08 21:49 | 53.46026 | -2.06431 | 3384 ft | 216 kts | 247° |
| 2026-05-08 21:49 | 53.45231 | -2.08487 | 3121 ft | 213 kts | 226° |
| 2026-05-08 21:49 | 53.44182 | -2.10192 | 2894 ft | 206 kts | 221° |
| 2026-05-08 21:50 | 53.43196 | -2.11837 | 2674 ft | 195 kts | 221° |
| 2026-05-08 21:50 | 53.42276 | -2.13430 | 2464 ft | 186 kts | 224° |
| 2026-05-08 21:50 | 53.41416 | -2.15079 | 2210 ft | 184 kts | 226° |
| 2026-05-08 21:50 | 53.40633 | -2.16641 | 2038 ft | 173 kts | 226° |
| 2026-05-08 21:51 | 53.39879 | -2.18160 | 1814 ft | 165 kts | 226° |
| 2026-05-08 21:51 | 53.39197 | -2.19616 | 1551 ft | 152 kts | 228° |
| 2026-05-08 21:51 | 53.38569 | -2.20915 | 1278 ft | 138 kts | 227° |
| 2026-05-08 21:51 | 53.37984 | -2.22108 | 1046 ft | 133 kts | 228° |
| 2026-05-08 21:52 | 53.37413 | -2.23269 | 803 ft | 129 kts | 229° |
| 2026-05-08 21:52 | 53.36851 | -2.24412 | 599 ft | 128 kts | 229° |
| 2026-05-08 21:52 | 53.36299 | -2.25569 | 372 ft | 129 kts | 230° |
| 2026-05-08 21:52 | 53.35762 | -2.26696 | 262 ft | 112 kts | 229° |
| 2026-05-08 21:53 | 53.35432 | -2.27375 | 252 ft | 48 kts | 231° |
| 2026-05-08 21:53 | 53.35283 | -2.27724 | 242 ft | 32 kts | 248° |
| 2026-05-08 21:53 | 53.35244 | -2.28000 | 237 ft | 16 kts | 263° |
| 2026-05-08 21:53 | 53.35230 | -2.28153 | 234 ft | 9 kts | 266° |
| 2026-05-08 21:54 | 53.35250 | -2.28222 | 237 ft | 6 kts | 334° |
| 2026-05-08 21:54 | 53.35295 | -2.28220 | 235 ft | 7 kts | 22° |
| 2026-05-08 21:54 | 53.35346 | -2.28187 | 237 ft | 8 kts | 19° |
| 2026-05-08 21:54 | 53.35409 | -2.28162 | 239 ft | 10 kts | 7° |
| 2026-05-08 21:55 | 53.35471 | -2.28144 | 240 ft | 8 kts | 11° |
| 2026-05-08 21:55 | 53.35516 | -2.28135 | 242 ft | 5 kts | 2° |
| 2026-05-08 21:55 | 53.35545 | -2.28133 | 242 ft | 2 kts | 7° |
| 2026-05-08 21:56 | 53.35565 | -2.28146 | 242 ft | 1 kts | 282° |
| 2026-05-08 21:56 | 53.35565 | -2.28150 | 242 ft | 0 kts | 279° |